• Join FlightAware (Why Join?)
  • Login
  • US Flag 
11:47AM EDT


 

Airport Tracker/Info


-or-


 

Live Flight TrackerFlight Track Log ✈ GJS3649 ✈ 03-Jul-2013 ✈ KBDL - KIAD

Flight Track Log - Related Links

Times and Time Zones

All times are in EDT time to prevent confusion due to time zone crossing. See the GJS3649 flight status page for this flight to view local times or setup timezone preferences in your user account.

Time Position Orientation Groundspeed Altitude Reporting Facility
EDT Latitude Longitude Course Direction KTS MPH feet Rate Location/Type
03:20PM 41.9311 -72.7053 236° Southwest 150 173 900  Level Boston Center
03:21PM 41.9247 -72.7469 258° West 160 184 2,200 1,800 Climbing Boston Center
03:22PM 41.9225 -72.8392 268° West 204 235 4,800 2,040 Climbing Boston Center
03:23PM 41.9200 -72.9311 268° West 226 260 7,400 2,460 Climbing Boston Center
03:24PM 41.8934 -73.3132 236° Southwest  Level FlightAware Approximate
03:24PM 41.9172 -73.0483 268° West 262 302 10,300  Level Boston Center
03:25PM 41.8403 -73.4195 236° Southwest  Level FlightAware Approximate
03:25PM 41.9144 -73.1739 268° West 298 343 11,400  Level Boston Center
03:26PM 41.9053 -73.2908 264° West 340 391 12,900 1,500 Climbing Boston Center
03:27PM 41.8564 -73.4072 241° Southwest 350 403 14,500 1,620 Climbing Boston Center
03:28PM 41.7989 -73.5400 240° Southwest 376 433 16,200 1,680 Climbing Boston Center
03:29PM 41.7314 -73.6308 225° Southwest 387 445 17,900 1,860 Climbing Boston Center
03:30PM 41.6428 -73.7206 217° Southwest 381 438 20,000 2,100 Climbing Boston Center
03:31PM 41.6600 -73.8489 280° West 314 361 22,100 1,680 Climbing Boston Center
03:33PM 41.6697 -74.0619 274° West 326 375 24,600 1,320 Climbing New York Center
03:34PM 41.6253 -74.1622 239° Southwest 320 368 25,800 660 Climbing New York Center
03:35PM 41.5467 -74.2108 205° Southwest 313 360 26,000 60 Climbing New York Center
03:36PM 41.4450 -74.2750 205° Southwest 351 404 26,000  Level New York Center
03:37PM 41.3347 -74.3408 204° Southwest 405 466 26,000  Level New York Center
03:38PM 41.2075 -74.4086 202° Southwest 433 498 26,000 -60 Level New York Center
03:39PM 41.0972 -74.4797 206° Southwest 438 504 25,900  Descending New York Center
03:40PM 40.9867 -74.5425 203° Southwest 438 504 26,000  Climbing New York Center
03:41PM 40.8967 -74.6225 214° Southwest 438 504 25,900  Descending New York Center
03:42PM 40.8300 -74.7503 235° Southwest 433 498 26,000  Climbing New York Center
03:43PM 40.7733 -74.8842 241° Southwest 427 491 26,000  Level New York Center
03:44PM 40.7125 -75.0144 238° Southwest 420 483 26,000 -480 Level New York Center
03:45PM 40.6511 -75.1503 239° Southwest 420 483 25,100 -960 Descending New York Center
03:46PM 40.5897 -75.2858 239° Southwest 426 490 24,100 -1,140 Descending New York Center
03:47PM 40.5328 -75.4131 240° Southwest 426 490 22,900 -1,200 Descending New York Center
03:48PM 40.4803 -75.5269 239° Southwest 398 458 21,800 -1,080 Descending New York Center
03:49PM 40.4300 -75.6353 239° Southwest 375 432 20,800 -960 Descending New York Center
03:50PM 40.3797 -75.7461 239° Southwest 362 417 20,000 -420 Descending New York Center
03:51PM 40.3247 -75.8619 238° Southwest 368 423 20,000 -120 Level New York Center
03:52PM 40.2653 -75.9828 237° Southwest 386 444 19,800 -600 Descending New York Center
03:53PM 40.2097 -76.1036 239° Southwest 381 438 18,900 -900 Descending New York Center
03:54PM 40.1567 -76.2164 238° Southwest 363 418 18,000 -960 Descending New York Center
03:55PM 40.1083 -76.3156 238° Southwest 363 418 17,100 -1,200 Descending New York Center
03:56PM 40.0572 -76.4256 239° Southwest 363 418 15,700 -720 Descending New York Center
03:58PM 39.9500 -76.6500 238° Southwest 346 398 15,000 -240 Descending Potomac TRACON
04:00PM 39.8667 -76.8500 242° Southwest 340 391 14,900 -360 Descending Potomac TRACON
04:01PM 39.8167 -76.9500 237° Southwest 327 376 14,100 -900 Descending Potomac TRACON
04:02PM 39.7667 -77.0500 237° Southwest 319 367 13,200 -1,380 Descending Potomac TRACON
04:03PM 39.7167 -77.1500 237° Southwest 306 352 11,400 -1,740 Descending Potomac TRACON
04:04PM 39.6833 -77.2333 243° Southwest 280 322 9,600 -1,620 Descending Potomac TRACON
04:05PM 39.6333 -77.3167 232° Southwest 251 289 8,000 -1,320 Descending Potomac TRACON
04:06PM 39.5667 -77.3500 201° Southwest 242 278 7,000 -480 Descending Potomac TRACON
04:07PM 39.5167 -77.3667 194° South 230 265 7,100  Climbing Potomac TRACON
04:08PM 39.4667 -77.4167 218° Southwest 231 266 7,100  Level Potomac TRACON
04:09PM 39.4167 -77.4500 207° Southwest 228 262 7,100  Level Potomac TRACON
04:10PM 39.3500 -77.4500 180° South 225 259 7,100 -480 Level Potomac TRACON
04:11PM 39.3000 -77.4500 180° South 192 221 6,200 -900 Descending Potomac TRACON
04:12PM 39.2500 -77.4500 180° South 179 206 5,300 -780 Descending Potomac TRACON
04:13PM 39.2000 -77.4500 180° South 178 205 4,700 -900 Descending Potomac TRACON
04:14PM 39.1500 -77.4500 180° South 183 211 3,500 -1,020 Descending Potomac TRACON
04:15PM 39.1000 -77.4500 180° South 183 211 2,700 -840 Descending Potomac TRACON